KPDX/PDX METAR and TAF weather

Enter ICAO airport designator
Station Type Date Time Source
KPDX METAR 2019/02/23 22:53 UTC NOAA

KPDX 232253Z VRB04KT 4SM RA BR BKN015 BKN021 OVC030 06/05 A3012 RMK AO2 RAB20 SLP200 P0008 T00610050


Station Type Date Time Source
KPDX Decoded METAR 2019/02/23 22:53 UTC NOAA

PORTLAND INTERNATIONAL AIRPORT, OR, United States (KPDX) 45-35N 122-36W 7M
Feb 23, 2019 - 05:53 PM EST / 2019.02.23 2253 UTC
Wind: Variable at 5 MPH (4 KT):0
Visibility: 4 mile(s):0
Sky conditions: overcast
Weather: rain; mist
Precipitation last hour: 0.08 inches
Temperature: 43.0 F (6.1 C)
Dew Point: 41.0 F (5.0 C)
Relative Humidity: 92%
Pressure (altimeter): 30.12 in. Hg (1019 hPa)
ob: KPDX 232253Z VRB04KT 4SM RA BR BKN015 BKN021 OVC030 06/05 A3012 RMK AO2 RAB20 SLP200 P0008 T00610050
cycle: 23

Station Type Date Time Source
KPDX TAF 2019/02/23 23:57 UTC NOAA

TAF
AMD KPDX 232255Z 2323/2418 VRB03KT 6SM -SHRA SCT015 BKN025 OVC040
FM240800 09005KT 5SM -RA SCT007 BKN015 OVC025
FM241400 12005KT P6SM -SHRA SCT015 OVC025


Example: see airport list